Ridgefield, Washington
Current Conditions -  °F | °C
As of 11:53 PM on Thursday 20 Nov 2014 (Local Time) from KSPB Reporting Station
Overcast Overcast  
Wind Chill: 40°   Ceiling: 6500
Heat Index: 40°   Visibility: 7mi
Dew Point: 37°   Wind: 0mph
Humidity: 89%   Direction: NA
Pressure: 29.96"   Gusts: NA
Location:  45.82°N, 122.74°W
Report Text: KSPB 210753Z AUTO 00000KT 7SM FEW019 SCT042 OVC065 04/03 A2996 RMK AO2 SLP145 T00440028 400890028
Loading
Personal Weather Stations






























Interactive Weather Map New forecast layout! Learn more

10-Day Weather Forecast

Advertisements
Track Severe Weather on mobile